Terminal Aerodrome Forecast
Issued by NWS Cleveland, OH

Home | Current Version | Previous Version | Graphics & Text | Print | Product List | Glossary On
Versions: 1 2 3 4 5 6 7 8 9 10 11 12 13 14 15 16 17 18
086
FTUS41 KCLE 250734 AAB
TAFMFD
TAF AMD
KMFD 250734Z 2508/2606 23009KT P6SM SCT008
      TEMPO 2509/2513 5SM BR BKN008
     FM251300 22010KT P6SM BKN015
     FM251600 22010G20KT P6SM BKN045
     FM252000 25012KT P6SM VCSH BKN045
      TEMPO 2522/2602 4SM TSRA BR OVC025CB
     FM260200 29008KT 5SM BR SCT025 BKN080=

USA.gov is the U.S. government's official web portal to all federal, state and local government web resources and services.